createdAt,value
2022-12-24T00:01:21.827Z,4.55
2022-12-24T00:03:49.668Z,4.52
2022-12-24T00:06:23.391Z,4.56
2022-12-24T00:08:51.633Z,4.57
2022-12-24T00:11:19.677Z,4.48
2022-12-24T00:13:48.345Z,4.49
2022-12-24T00:16:15.662Z,4.45
2022-12-24T00:18:46.256Z,4.45
2022-12-24T00:21:15.910Z,4.54
2022-12-24T00:23:43.886Z,4.60
2022-12-24T00:26:11.920Z,4.67
2022-12-24T00:28:39.497Z,4.58
2022-12-24T00:31:19.190Z,4.64
2022-12-24T00:33:47.839Z,4.67
2022-12-24T00:36:16.478Z,4.72
2022-12-24T00:38:44.623Z,4.66
2022-12-24T00:41:26.023Z,4.86
2022-12-24T00:44:05.647Z,4.92
2022-12-24T00:46:34.965Z,4.92
2022-12-24T00:49:02.613Z,4.92
2022-12-24T00:51:30.311Z,4.92
2022-12-24T00:53:57.978Z,4.96
2022-12-24T00:56:25.429Z,5.02
2022-12-24T00:58:53.421Z,5.09
2022-12-24T01:01:23.686Z,4.95
2022-12-24T01:03:51.769Z,4.86
2022-12-24T01:06:21.684Z,4.89
2022-12-24T01:08:52.485Z,4.82
2022-12-24T01:11:19.936Z,4.67
2022-12-24T01:13:47.173Z,4.72
2022-12-24T01:16:21.195Z,4.64
2022-12-24T01:18:48.605Z,4.49
2022-12-24T01:21:16.616Z,4.58
2022-12-24T01:23:44.504Z,4.83
2022-12-24T01:26:15.004Z,4.81
2022-12-24T01:28:42.857Z,4.72
2022-12-24T01:31:19.083Z,4.81
2022-12-24T01:33:49.088Z,5.05
2022-12-24T01:36:16.572Z,5.08
2022-12-24T01:38:43.868Z,4.97
2022-12-24T01:41:40.959Z,4.93
2022-12-24T01:44:36.969Z,4.86
2022-12-24T01:47:14.288Z,4.87
2022-12-24T01:49:52.626Z,4.96
2022-12-24T01:52:34.410Z,4.95
2022-12-24T01:55:16.643Z,5.29
2022-12-24T01:57:59.990Z,5.37
2022-12-24T02:00:27.395Z,5.46
2022-12-24T02:02:55.947Z,5.53
2022-12-24T02:05:31.157Z,5.63
2022-12-24T02:08:01.941Z,5.78
2022-12-24T02:10:29.150Z,6.06
2022-12-24T02:12:58.525Z,6.38
2022-12-24T02:15:29.107Z,6.41
2022-12-24T02:18:15.021Z,6.57
2022-12-24T02:21:15.917Z,6.76
2022-12-24T02:23:49.248Z,6.95
2022-12-24T02:26:42.981Z,6.97
2022-12-24T02:29:59.551Z,7.23
2022-12-24T02:32:49.053Z,7.07
2022-12-24T02:35:52.196Z,7.07
2022-12-24T02:38:47.054Z,6.98
2022-12-24T02:41:26.645Z,7.19
2022-12-24T02:43:57.855Z,7.00
2022-12-24T02:46:29.901Z,7.04
2022-12-24T02:48:59.351Z,7.08
2022-12-24T02:51:26.666Z,6.96
2022-12-24T02:53:54.017Z,7.04
2022-12-24T02:56:45.559Z,6.95
2022-12-24T02:59:49.219Z,6.90
2022-12-24T03:03:07.787Z,7.00
2022-12-24T03:05:56.166Z,6.96
2022-12-24T03:09:01.155Z,7.20
2022-12-24T03:11:28.629Z,7.10
2022-12-24T03:13:59.109Z,7.11
2022-12-24T03:16:28.482Z,6.90
2022-12-24T03:18:58.623Z,6.98
2022-12-24T03:21:38.227Z,6.93
2022-12-24T03:24:05.841Z,6.96
2022-12-24T03:26:34.298Z,7.00
2022-12-24T03:29:06.948Z,7.03
2022-12-24T03:31:48.949Z,6.97
2022-12-24T03:34:19.049Z,6.99
2022-12-24T03:36:48.471Z,6.94
2022-12-24T03:39:16.438Z,6.99
2022-12-24T03:41:43.759Z,6.97
2022-12-24T03:44:11.262Z,6.95
2022-12-24T03:46:38.544Z,6.93
2022-12-24T03:49:05.823Z,7.01
2022-12-24T03:51:33.389Z,7.07
2022-12-24T03:54:00.889Z,6.96
2022-12-24T03:56:28.276Z,7.03
2022-12-24T03:58:55.493Z,6.97
2022-12-24T04:01:22.975Z,6.98
2022-12-24T04:03:50.479Z,7.12
2022-12-24T04:06:18.149Z,7.19
2022-12-24T04:08:45.477Z,7.28
2022-12-24T04:11:15.552Z,7.25
2022-12-24T04:13:43.128Z,7.09
2022-12-24T04:16:13.762Z,7.16
2022-12-24T04:18:41.571Z,7.25
2022-12-24T04:21:09.450Z,7.16
2022-12-24T04:23:39.008Z,7.18
2022-12-24T04:26:08.953Z,7.12
2022-12-24T04:28:38.061Z,7.03
2022-12-24T04:31:09.134Z,7.08
2022-12-24T04:33:37.017Z,7.07
2022-12-24T04:36:06.678Z,7.21
2022-12-24T04:38:35.082Z,7.20
2022-12-24T04:41:07.321Z,7.17
2022-12-24T04:43:35.115Z,7.15
2022-12-24T04:46:15.070Z,6.95
2022-12-24T04:48:42.584Z,6.99
2022-12-24T04:51:11.746Z,6.96
2022-12-24T04:53:41.039Z,7.01
2022-12-24T04:56:28.086Z,6.90
2022-12-24T04:58:55.580Z,6.87
2022-12-24T05:01:26.515Z,6.95
2022-12-24T05:03:54.777Z,6.82
2022-12-24T05:06:29.834Z,6.84
2022-12-24T05:08:59.179Z,6.81
2022-12-24T05:11:27.191Z,6.95
2022-12-24T05:13:54.667Z,7.08
2022-12-24T05:16:24.066Z,7.19
2022-12-24T05:18:52.028Z,7.27
2022-12-24T05:21:22.400Z,7.26
2022-12-24T05:24:08.908Z,7.07
2022-12-24T05:26:56.043Z,7.21
2022-12-24T05:29:23.943Z,7.21
2022-12-24T05:31:51.190Z,7.18
2022-12-24T05:34:18.587Z,7.14
2022-12-24T05:36:46.338Z,7.28
2022-12-24T05:39:18.344Z,7.14
2022-12-24T05:41:47.733Z,7.26
2022-12-24T05:44:16.579Z,7.31
2022-12-24T05:46:44.964Z,7.04
2022-12-24T05:49:13.057Z,7.09
2022-12-24T05:51:41.235Z,7.06
2022-12-24T05:54:08.751Z,7.15
2022-12-24T05:56:36.064Z,7.12
2022-12-24T05:59:03.446Z,7.32
2022-12-24T06:01:30.974Z,7.35
2022-12-24T06:03:58.696Z,7.23
2022-12-24T06:06:28.280Z,7.32
2022-12-24T06:08:56.534Z,7.30
2022-12-24T06:11:28.211Z,7.36
2022-12-24T06:13:56.265Z,7.27
2022-12-24T06:16:24.919Z,7.32
2022-12-24T06:18:52.791Z,7.29
2022-12-24T06:21:20.187Z,7.37
2022-12-24T06:23:47.701Z,7.39
2022-12-24T06:26:21.843Z,7.39
2022-12-24T06:28:50.954Z,7.30
2022-12-24T06:31:21.875Z,7.43
2022-12-24T06:33:49.756Z,7.41
2022-12-24T06:36:23.734Z,7.42
2022-12-24T06:38:52.578Z,7.47
2022-12-24T06:41:20.860Z,7.28
2022-12-24T06:43:51.159Z,7.34
2022-12-24T06:46:19.635Z,7.40
2022-12-24T06:48:48.510Z,7.46
2022-12-24T06:51:19.955Z,7.49
2022-12-24T06:53:50.906Z,7.45
2022-12-24T06:56:19.736Z,7.45
2022-12-24T06:58:47.674Z,7.41
2022-12-24T07:01:17.302Z,7.42
2022-12-24T07:03:44.701Z,7.41
2022-12-24T07:06:26.667Z,7.35
2022-12-24T07:08:54.528Z,7.40
2022-12-24T07:11:24.921Z,7.49
2022-12-24T07:13:52.382Z,7.49
2022-12-24T07:16:19.736Z,7.57
2022-12-24T07:18:47.159Z,7.59
2022-12-24T07:21:14.409Z,7.59
2022-12-24T07:23:41.741Z,7.60
2022-12-24T07:26:09.063Z,7.59
2022-12-24T07:28:36.268Z,7.67
2022-12-24T07:31:03.689Z,7.62
2022-12-24T07:33:31.367Z,7.52
2022-12-24T07:36:07.591Z,7.43
2022-12-24T07:38:35.806Z,7.34
2022-12-24T07:41:03.368Z,7.44
2022-12-24T07:43:33.015Z,7.61
2022-12-24T07:46:00.345Z,7.68
2022-12-24T07:48:29.713Z,7.73
2022-12-24T07:50:57.742Z,7.88
2022-12-24T07:53:26.855Z,7.86
2022-12-24T07:55:54.967Z,7.89
2022-12-24T07:58:23.460Z,7.79
2022-12-24T08:00:59.130Z,7.98
2022-12-24T08:03:27.373Z,7.97
2022-12-24T08:05:55.231Z,8.17
2022-12-24T08:08:22.603Z,8.21
2022-12-24T08:10:50.243Z,8.24
2022-12-24T08:13:18.198Z,8.16
2022-12-24T08:15:46.151Z,8.16
2022-12-24T08:18:13.458Z,8.18
2022-12-24T08:20:41.685Z,8.44
2022-12-24T08:23:09.347Z,8.69
2022-12-24T08:25:37.641Z,8.76
2022-12-24T08:28:06.033Z,8.59
2022-12-24T08:30:34.012Z,8.60
2022-12-24T08:33:01.482Z,8.63
2022-12-24T08:35:29.005Z,8.57
2022-12-24T08:37:56.582Z,8.36
2022-12-24T08:40:24.387Z,8.54
2022-12-24T08:42:51.878Z,8.51
2022-12-24T08:45:20.034Z,8.45
2022-12-24T08:47:47.751Z,8.49
2022-12-24T08:50:15.727Z,8.39
2022-12-24T08:52:43.202Z,8.49
2022-12-24T08:55:10.747Z,8.42
2022-12-24T08:57:38.656Z,8.66
2022-12-24T09:00:07.872Z,8.59
2022-12-24T09:02:35.905Z,8.51
2022-12-24T09:05:03.941Z,8.37
2022-12-24T09:07:31.514Z,8.50
2022-12-24T09:09:59.099Z,9.22
2022-12-24T09:12:26.457Z,9.16
2022-12-24T09:14:59.618Z,9.02
2022-12-24T09:17:30.585Z,8.78
2022-12-24T09:19:58.218Z,8.85
2022-12-24T09:22:25.546Z,9.15
2022-12-24T09:24:55.045Z,9.35
2022-12-24T09:27:22.602Z,9.51
2022-12-24T09:29:50.269Z,9.52
2022-12-24T09:32:17.738Z,9.34
2022-12-24T09:34:45.191Z,9.82
2022-12-24T09:37:12.792Z,10.71
2022-12-24T09:39:40.216Z,10.91
2022-12-24T09:42:40.802Z,10.68
2022-12-24T09:45:28.828Z,9.70
2022-12-24T09:48:06.019Z,9.68
2022-12-24T09:50:53.287Z,9.77
2022-12-24T09:53:55.991Z,9.75
2022-12-24T09:56:40.301Z,9.39
2022-12-24T09:59:20.763Z,9.15
2022-12-24T10:01:51.295Z,9.18
2022-12-24T10:04:27.843Z,9.10
2022-12-24T10:07:25.145Z,8.94
2022-12-24T10:10:37.875Z,9.08
2022-12-24T10:13:18.575Z,8.92
2022-12-24T10:15:59.132Z,8.77
2022-12-24T10:19:03.113Z,8.80
2022-12-24T10:21:45.301Z,8.99
2022-12-24T10:25:08.371Z,8.93
2022-12-24T10:27:40.601Z,8.85
2022-12-24T10:30:20.449Z,8.77
2022-12-24T10:32:53.681Z,8.84
2022-12-24T10:35:26.718Z,8.72
2022-12-24T10:37:54.560Z,8.63
2022-12-24T10:44:29.788Z,8.77
2022-12-24T10:46:57.923Z,8.58
2022-12-24T10:49:58.013Z,8.45
2022-12-24T10:52:33.659Z,8.52
2022-12-24T10:55:28.301Z,8.41
2022-12-24T11:03:00.673Z,8.49
2022-12-24T11:06:00.319Z,8.52
2022-12-24T11:08:27.774Z,8.32
2022-12-24T11:11:08.943Z,8.37
2022-12-24T11:13:46.060Z,8.61
2022-12-24T11:16:32.382Z,8.50
2022-12-24T11:19:03.419Z,8.58
2022-12-24T11:21:38.228Z,8.38
2022-12-24T11:24:26.005Z,8.58
2022-12-24T11:26:53.624Z,8.70
2022-12-24T11:29:28.273Z,8.58
2022-12-24T11:32:22.086Z,8.54
2022-12-24T11:34:51.031Z,8.62
2022-12-24T11:37:24.034Z,8.59
2022-12-24T11:39:56.257Z,8.57
2022-12-24T11:42:38.172Z,8.60
2022-12-24T11:45:26.761Z,8.60
2022-12-24T11:47:55.040Z,8.38
2022-12-24T11:50:35.978Z,8.57
2022-12-24T11:53:03.108Z,8.76
2022-12-24T11:55:51.373Z,8.58
2022-12-24T11:58:53.974Z,8.49
2022-12-24T12:01:50.230Z,8.44
2022-12-24T12:04:35.361Z,8.51
2022-12-24T12:07:16.609Z,8.57
2022-12-24T12:09:54.847Z,8.66
2022-12-24T12:12:34.869Z,8.91
2022-12-24T12:15:20.338Z,8.88
2022-12-24T12:17:54.657Z,9.01
2022-12-24T12:20:46.388Z,8.97
2022-12-24T12:23:36.757Z,8.92
2022-12-24T12:26:32.293Z,8.81
2022-12-24T12:29:11.790Z,8.90
2022-12-24T12:31:54.305Z,8.75
2022-12-24T12:34:33.185Z,8.92
2022-12-24T12:37:17.089Z,8.85
2022-12-24T12:39:44.900Z,8.62
2022-12-24T12:42:38.927Z,8.83
2022-12-24T12:45:53.152Z,8.81
2022-12-24T12:49:10.724Z,8.73
2022-12-24T12:52:02.527Z,8.67
2022-12-24T12:55:02.526Z,8.82
2022-12-24T12:57:37.040Z,8.71
2022-12-24T13:00:09.990Z,8.63
2022-12-24T13:03:28.911Z,8.63
2022-12-24T13:06:41.680Z,8.46
2022-12-24T13:09:38.883Z,8.60
2022-12-24T13:12:26.194Z,8.59
2022-12-24T13:14:53.305Z,8.38
2022-12-24T13:17:45.516Z,8.18
2022-12-24T13:20:21.424Z,8.30
2022-12-24T13:23:00.905Z,8.27
2022-12-24T13:25:38.861Z,8.25
2022-12-24T13:28:33.993Z,8.03
2022-12-24T13:31:24.784Z,8.34
2022-12-24T13:34:00.392Z,8.42
2022-12-24T13:37:20.227Z,8.28
2022-12-24T13:40:16.987Z,8.24
2022-12-24T13:42:56.654Z,8.21
2022-12-24T13:45:30.304Z,8.27
2022-12-24T13:48:11.399Z,8.26
2022-12-24T13:50:53.721Z,8.29
2022-12-24T13:53:33.894Z,8.21
2022-12-24T13:56:09.830Z,8.09
2022-12-24T13:58:53.295Z,7.98
2022-12-24T14:01:33.915Z,8.06
2022-12-24T14:04:05.574Z,8.04
2022-12-24T14:06:40.226Z,7.99
2022-12-24T14:09:16.587Z,8.03
2022-12-24T14:12:01.900Z,7.95
2022-12-24T14:14:42.021Z,7.90
2022-12-24T14:17:27.044Z,7.90
2022-12-24T14:20:02.456Z,7.90
2022-12-24T14:22:42.174Z,7.99
2022-12-24T14:25:24.987Z,7.89
2022-12-24T14:28:03.922Z,7.83
2022-12-24T14:30:32.841Z,7.96
2022-12-24T14:33:00.381Z,7.88
2022-12-24T14:35:38.760Z,7.75
2022-12-24T14:38:18.853Z,7.85
2022-12-24T14:41:28.488Z,7.72
2022-12-24T14:44:37.199Z,7.74
2022-12-24T14:47:22.501Z,7.57
2022-12-24T14:50:37.597Z,7.63
2022-12-24T14:53:23.982Z,7.69
2022-12-24T14:55:51.430Z,7.67
2022-12-24T14:58:32.587Z,7.66
2022-12-24T15:01:20.120Z,7.65
2022-12-24T15:04:06.084Z,7.59
2022-12-24T15:06:52.861Z,7.60
2022-12-24T15:09:23.920Z,7.61
2022-12-24T15:12:04.527Z,7.57
2022-12-24T15:14:44.040Z,7.62
2022-12-24T15:17:13.444Z,7.66
2022-12-24T15:19:44.824Z,7.67
2022-12-24T15:22:31.246Z,7.54
2022-12-24T15:24:58.768Z,7.60
2022-12-24T15:27:38.951Z,7.58
2022-12-24T15:30:27.391Z,7.68
2022-12-24T15:32:57.462Z,7.60
2022-12-24T15:35:53.485Z,7.59
2022-12-24T15:38:39.955Z,7.52
2022-12-24T15:42:00.031Z,7.43
2022-12-24T15:44:33.285Z,7.41
2022-12-24T15:47:02.989Z,7.46
2022-12-24T15:49:33.363Z,7.32
2022-12-24T15:52:08.796Z,7.28
2022-12-24T15:54:36.373Z,7.25
2022-12-24T15:57:26.145Z,7.17
2022-12-24T15:59:57.011Z,7.09
2022-12-24T16:02:36.357Z,6.93
2022-12-24T16:05:22.624Z,6.84
2022-12-24T16:08:21.886Z,6.88
2022-12-24T16:11:10.265Z,6.84
2022-12-24T16:14:02.989Z,6.89
2022-12-24T16:16:42.184Z,6.84
2022-12-24T16:19:26.379Z,6.84
2022-12-24T16:22:20.869Z,6.77
2022-12-24T16:24:48.591Z,6.74
2022-12-24T16:27:15.945Z,6.77
2022-12-24T16:29:43.250Z,6.75
2022-12-24T16:32:36.067Z,6.78
2022-12-24T16:35:08.198Z,6.80
2022-12-24T16:37:35.702Z,6.71
2022-12-24T16:40:03.109Z,6.66
2022-12-24T16:42:49.118Z,6.76
2022-12-24T16:45:16.527Z,6.76
2022-12-24T16:47:43.999Z,6.74
2022-12-24T16:50:17.697Z,6.75
2022-12-24T16:52:45.191Z,6.78
2022-12-24T16:55:15.806Z,6.78
2022-12-24T16:57:44.380Z,6.80
2022-12-24T17:00:22.232Z,6.74
2022-12-24T17:02:50.589Z,6.79
2022-12-24T17:05:18.230Z,6.91
2022-12-24T17:07:45.902Z,6.94
2022-12-24T17:10:14.399Z,6.92
2022-12-24T17:12:42.704Z,6.94
2022-12-24T17:15:10.926Z,6.94
2022-12-24T17:17:38.328Z,6.88
2022-12-24T17:20:06.830Z,6.80
2022-12-24T17:22:34.235Z,6.84
2022-12-24T17:25:01.588Z,6.78
2022-12-24T17:27:29.101Z,6.67
2022-12-24T17:29:56.497Z,6.60
2022-12-24T17:32:24.948Z,6.50
2022-12-24T17:34:52.207Z,6.49
2022-12-24T17:37:19.772Z,6.42
2022-12-24T17:39:47.190Z,6.39
2022-12-24T17:42:14.520Z,6.29
2022-12-24T17:44:41.807Z,6.15
2022-12-24T17:47:09.225Z,5.96
2022-12-24T17:49:36.593Z,5.89
2022-12-24T17:52:05.218Z,5.93
2022-12-24T17:54:32.807Z,6.11
2022-12-24T17:57:00.045Z,6.14
2022-12-24T17:59:29.601Z,6.12
2022-12-24T18:01:57.073Z,6.09
2022-12-24T18:04:24.368Z,6.01
2022-12-24T18:06:56.269Z,6.01
2022-12-24T18:09:29.289Z,5.97
2022-12-24T18:11:56.495Z,5.95
2022-12-24T18:14:49.735Z,5.98
2022-12-24T18:17:19.314Z,6.05
2022-12-24T18:19:46.549Z,6.20
2022-12-24T18:22:17.339Z,6.12
2022-12-24T18:25:15.125Z,6.08
2022-12-24T18:27:42.366Z,6.03
2022-12-24T18:30:10.557Z,6.11
2022-12-24T18:32:38.457Z,6.05
2022-12-24T18:35:06.785Z,6.03
2022-12-24T18:37:34.615Z,6.08
2022-12-24T18:40:02.474Z,6.15
2022-12-24T18:42:29.860Z,6.24
2022-12-24T18:44:57.187Z,6.37
2022-12-24T18:47:24.967Z,6.32
2022-12-24T18:49:52.366Z,6.45
2022-12-24T18:52:22.726Z,6.44
2022-12-24T18:54:50.799Z,6.34
2022-12-24T18:57:18.141Z,6.43
2022-12-24T18:59:45.434Z,6.43
2022-12-24T19:02:12.914Z,6.41
2022-12-24T19:04:40.283Z,6.39
2022-12-24T19:07:07.536Z,6.37
2022-12-24T19:09:34.795Z,6.44
2022-12-24T19:12:02.054Z,6.44
2022-12-24T19:14:29.228Z,6.53
2022-12-24T19:16:56.469Z,6.60
2022-12-24T19:19:24.564Z,6.54
2022-12-24T19:21:52.017Z,6.57
2022-12-24T19:24:20.414Z,6.61
2022-12-24T19:26:48.908Z,6.71
2022-12-24T19:29:16.261Z,6.82
2022-12-24T19:31:47.342Z,6.85
2022-12-24T19:34:14.886Z,6.92
2022-12-24T19:36:42.205Z,6.87
2022-12-24T19:39:09.620Z,6.76
2022-12-24T19:41:36.883Z,6.67
2022-12-24T19:44:04.211Z,6.58
2022-12-24T19:46:36.302Z,6.49
2022-12-24T19:49:07.509Z,6.37
2022-12-24T19:51:35.787Z,6.23
2022-12-24T19:54:05.992Z,6.16
2022-12-24T19:56:33.966Z,6.20
2022-12-24T19:59:02.708Z,6.25
2022-12-24T20:01:33.835Z,6.23
2022-12-24T20:04:02.526Z,6.30
2022-12-24T20:06:34.223Z,6.40
2022-12-24T20:09:05.950Z,6.47
2022-12-24T20:11:34.194Z,6.37
2022-12-24T20:14:04.265Z,6.41
2022-12-24T20:16:32.132Z,6.38
2022-12-24T20:19:03.803Z,6.51
2022-12-24T20:21:32.443Z,6.50
2022-12-24T20:23:59.947Z,6.63
2022-12-24T20:26:29.486Z,6.57
2022-12-24T20:28:57.356Z,6.65
2022-12-24T20:31:30.099Z,6.80
2022-12-24T20:33:59.089Z,6.78
2022-12-24T20:36:28.712Z,6.79
2022-12-24T20:38:58.379Z,6.74
2022-12-24T20:41:28.699Z,6.84
2022-12-24T20:43:59.494Z,7.07
2022-12-24T20:46:27.670Z,7.12
2022-12-24T20:48:55.909Z,7.07
2022-12-24T20:51:26.554Z,7.05
2022-12-24T20:53:58.773Z,7.04
2022-12-24T20:56:26.627Z,6.95
2022-12-24T20:58:54.313Z,7.08
2022-12-24T21:01:25.954Z,7.12
2022-12-24T21:03:56.456Z,7.11
2022-12-24T21:06:25.258Z,7.23
2022-12-24T21:08:53.966Z,7.17
2022-12-24T21:11:41.017Z,7.15
2022-12-24T21:14:09.017Z,7.17
2022-12-24T21:16:37.829Z,7.16
2022-12-24T21:19:07.705Z,7.20
2022-12-24T21:21:36.427Z,7.18
2022-12-24T21:24:06.368Z,7.19
2022-12-24T21:26:34.317Z,7.17
2022-12-24T21:29:04.708Z,7.23
2022-12-24T21:31:32.596Z,6.97
2022-12-24T21:33:59.954Z,6.92
2022-12-24T21:36:27.327Z,6.82
2022-12-24T21:38:55.338Z,6.74
2022-12-24T21:41:27.279Z,6.84
2022-12-24T21:43:55.129Z,7.00
2022-12-24T21:46:25.902Z,7.09
2022-12-24T21:49:13.782Z,7.03
2022-12-24T21:51:43.469Z,7.15
2022-12-24T21:54:23.261Z,7.14
2022-12-24T21:57:11.029Z,7.03
2022-12-24T21:59:38.588Z,7.01
2022-12-24T22:02:07.089Z,7.01
2022-12-24T22:04:35.436Z,6.98
2022-12-24T22:07:38.081Z,7.01
2022-12-24T22:10:25.094Z,6.99
2022-12-24T22:12:53.636Z,7.10
2022-12-24T22:15:21.378Z,7.06
2022-12-24T22:17:48.661Z,7.02
2022-12-24T22:20:16.046Z,6.97
2022-12-24T22:22:43.255Z,6.72
2022-12-24T22:25:10.599Z,6.83
2022-12-24T22:27:37.839Z,6.90
2022-12-24T22:30:05.923Z,6.92
2022-12-24T22:32:33.717Z,6.98
2022-12-24T22:35:01.131Z,6.96
2022-12-24T22:37:28.530Z,6.98
2022-12-24T22:39:55.820Z,6.99
2022-12-24T22:42:23.100Z,6.95
2022-12-24T22:44:50.228Z,6.97
2022-12-24T22:47:17.600Z,6.93
2022-12-24T22:49:45.071Z,6.80
2022-12-24T22:52:12.334Z,6.92
2022-12-24T22:54:39.463Z,6.83
2022-12-24T22:57:06.671Z,6.86
2022-12-24T22:59:34.305Z,6.76
2022-12-24T23:02:06.133Z,6.76
2022-12-24T23:04:39.396Z,6.72
2022-12-24T23:07:10.243Z,6.68
2022-12-24T23:09:38.176Z,6.64
2022-12-24T23:12:06.794Z,6.53
2022-12-24T23:14:52.724Z,6.52
2022-12-24T23:17:20.265Z,6.65
2022-12-24T23:19:47.594Z,6.75
2022-12-24T23:22:14.958Z,6.60
2022-12-24T23:24:42.253Z,6.69
2022-12-24T23:27:09.583Z,6.60
2022-12-24T23:29:36.878Z,6.54
2022-12-24T23:32:04.360Z,6.55
2022-12-24T23:34:32.530Z,6.53
2022-12-24T23:36:59.720Z,6.31
2022-12-24T23:39:27.282Z,6.24
2022-12-24T23:41:54.612Z,6.17
2022-12-24T23:44:26.722Z,6.25
2022-12-24T23:46:57.523Z,6.24
2022-12-24T23:49:24.796Z,6.22
2022-12-24T23:51:52.024Z,6.29
2022-12-24T23:54:19.404Z,6.42
2022-12-24T23:56:46.730Z,6.47
2022-12-24T23:59:14.094Z,6.41
